Ben — 9VJM4 — position and weather

sailwx.info

Track history (hours):
 
Tides and Currents Weather Stations Pressure Air Temp Water Temp Dewpoint Dewpoint Depression Visibility Wind Speed Wind Dir Waves Ship Positions

Ben

Last reported at 2014-Sep-06 16:20 UTC. Time now 2014-Sep-16 21:25 UTC.
Position N 01°15' E 104°06'.
Warning: this ship's position is 10 days out of date.

Length 127 m; draft 7.4 m.

Type: Ship. MMSI: 565611000.

Date/timePositionNaut miles runAvg speedWind from/ knotsBaromVisibWave heightAir tempDewpointWater temp
2014-Sep-06 16:20N 01°15' E 104°06'1114.4
2014-Sep-06 15:33N 01°13' E 103°55'  
2014-Sep-04 02:13N 01°18' E 103°44'0 0.0
2014-Sep-02 23:33N 01°18' E 103°45'3 3.1
2014-Sep-02 22:33N 01°14' E 103°44'5 0.6
2014-Sep-02 14:12N 01°11' E 103°40'6 8.6
2014-Sep-02 13:33N 01°09' E 103°46'9 8.4
2014-Sep-02 12:32N 01°13' E 103°53'9 9.1
2014-Sep-02 11:33N 01°16' E 104°02'  
Track history (hours):
 
Tides and Currents Weather Stations Pressure Air Temp Water Temp Dewpoint Dewpoint Depression Visibility Wind Speed Wind Dir Waves Ship Positions

Ben

Last reported at 2014-Sep-06 16:20 UTC. Time now 2014-Sep-16 21:25 UTC.
Position N 01°15' E 104°06'.
Warning: this ship's position is 10 days out of date.

Length 127 m; draft 7.4 m.

Type: Ship. MMSI: 565611000.

Date/timePositionNaut miles runAvg speedWind from/ knotsBaromVisibWave heightAir tempDewpointWater temp
2014-Sep-06 16:20N 01°15' E 104°06'1114.4
2014-Sep-06 15:33N 01°13' E 103°55'  
2014-Sep-04 02:13N 01°18' E 103°44'0 0.0
2014-Sep-02 23:33N 01°18' E 103°45'3 3.1
2014-Sep-02 22:33N 01°14' E 103°44'5 0.6
2014-Sep-02 14:12N 01°11' E 103°40'6 8.6
2014-Sep-02 13:33N 01°09' E 103°46'9 8.4
2014-Sep-02 12:32N 01°13' E 103°53'9 9.1
2014-Sep-02 11:33N 01°16' E 104°02'  

Dump ship's entire track history